createdAt,value
2022-10-14T00:02:00.625Z,100911.59
2022-10-14T00:04:27.843Z,100912.44
2022-10-14T00:06:54.935Z,100908.97
2022-10-14T00:09:22.017Z,100908.81
2022-10-14T00:11:49.229Z,100903.44
2022-10-14T00:14:19.114Z,100894.63
2022-10-14T00:16:47.932Z,100897.25
2022-10-14T00:19:15.765Z,100892.91
2022-10-14T00:21:44.792Z,100895.53
2022-10-14T00:24:13.031Z,100891.56
2022-10-14T00:26:41.120Z,100891.56
2022-10-14T00:29:14.141Z,100893.16
2022-10-14T00:31:41.177Z,100893.00
2022-10-14T00:34:08.231Z,100893.84
2022-10-14T00:36:35.248Z,100894.88
2022-10-14T00:39:02.392Z,100897.41
2022-10-14T00:41:32.512Z,100893.09
2022-10-14T00:44:25.136Z,100897.50
2022-10-14T00:46:52.392Z,100888.16
2022-10-14T00:49:20.983Z,100891.13
2022-10-14T00:51:54.415Z,100890.44
2022-10-14T00:54:24.508Z,100888.75
2022-10-14T00:56:51.728Z,100891.53
2022-10-14T00:59:19.023Z,100884.75
2022-10-14T01:01:46.279Z,100882.38
2022-10-14T01:04:13.818Z,100890.59
2022-10-14T01:07:15.081Z,100887.78
2022-10-14T01:09:53.477Z,100886.94
2022-10-14T01:12:45.557Z,100882.38
2022-10-14T01:15:38.982Z,100882.44
2022-10-14T01:18:34.193Z,100872.78
2022-10-14T01:21:08.790Z,100878.59
2022-10-14T01:23:46.924Z,100872.59
2022-10-14T01:26:16.958Z,100877.22
2022-10-14T01:28:57.454Z,100878.00
2022-10-14T01:31:31.289Z,100874.53
2022-10-14T01:34:02.823Z,100869.16
2022-10-14T01:36:34.040Z,100875.28
2022-10-14T01:39:15.957Z,100867.38
2022-10-14T01:41:49.331Z,100867.47
2022-10-14T01:44:17.944Z,100871.97
2022-10-14T01:46:49.141Z,100866.94
2022-10-14T01:49:58.586Z,100860.03
2022-10-14T01:52:28.630Z,100859.09
2022-10-14T01:54:59.280Z,100861.50
2022-10-14T01:57:35.695Z,100867.53
2022-10-14T02:00:05.228Z,100857.97
2022-10-14T02:02:36.395Z,100858.81
2022-10-14T02:05:10.691Z,100855.53
2022-10-14T02:07:44.955Z,100861.84
2022-10-14T02:10:46.830Z,100861.88
2022-10-14T02:13:52.910Z,100856.00
2022-10-14T02:16:27.410Z,100857.63
2022-10-14T02:19:03.714Z,100860.09
2022-10-14T02:21:41.961Z,100865.28
2022-10-14T02:24:30.969Z,100860.88
2022-10-14T02:27:01.021Z,100867.13
2022-10-14T02:29:29.886Z,100863.75
2022-10-14T02:31:57.899Z,100872.47
2022-10-14T02:34:26.050Z,100875.03
2022-10-14T02:36:54.709Z,100872.13
2022-10-14T02:39:28.670Z,100863.19
2022-10-14T02:41:56.036Z,100866.53
2022-10-14T02:44:23.651Z,100872.63
2022-10-14T02:46:50.989Z,100867.69
2022-10-14T02:49:19.419Z,100868.78
2022-10-14T02:51:46.629Z,100865.13
2022-10-14T02:54:14.389Z,100869.41
2022-10-14T02:56:41.591Z,100867.75
2022-10-14T02:59:08.936Z,100872.97
2022-10-14T03:01:37.751Z,100878.28
2022-10-14T03:04:05.432Z,100861.66
2022-10-14T03:06:32.560Z,100871.31
2022-10-14T03:08:59.877Z,100862.44
2022-10-14T03:11:27.034Z,100849.34
2022-10-14T03:13:54.359Z,100845.03
2022-10-14T03:16:21.475Z,100842.94
2022-10-14T03:18:48.678Z,100845.25
2022-10-14T03:21:15.865Z,100844.16
2022-10-14T03:23:43.044Z,100845.75
2022-10-14T03:26:13.838Z,100839.50
2022-10-14T03:28:41.716Z,100839.34
2022-10-14T03:31:08.896Z,100831.25
2022-10-14T03:33:37.351Z,100833.00
2022-10-14T03:36:04.596Z,100831.19
2022-10-14T03:38:31.694Z,100838.31
2022-10-14T03:40:59.263Z,100828.88
2022-10-14T03:43:26.408Z,100825.59
2022-10-14T03:45:53.867Z,100828.97
2022-10-14T03:48:21.317Z,100834.09
2022-10-14T03:50:48.670Z,100832.69
2022-10-14T03:53:15.958Z,100828.63
2022-10-14T03:55:43.026Z,100825.19
2022-10-14T03:58:11.314Z,100828.94
2022-10-14T04:00:38.478Z,100827.31
2022-10-14T04:03:05.642Z,100827.16
2022-10-14T04:05:34.801Z,100835.91
2022-10-14T04:08:02.068Z,100834.19
2022-10-14T04:10:29.631Z,100829.09
2022-10-14T04:12:57.006Z,100827.31
2022-10-14T04:15:24.295Z,100814.69
2022-10-14T04:17:51.877Z,100826.59
2022-10-14T04:20:19.277Z,100828.38
2022-10-14T04:22:46.430Z,100820.28
2022-10-14T04:25:13.690Z,100820.06
2022-10-14T04:27:40.898Z,100825.09
2022-10-14T04:30:08.582Z,100822.47
2022-10-14T04:32:35.756Z,100813.50
2022-10-14T04:35:02.964Z,100809.75
2022-10-14T04:37:30.211Z,100813.97
2022-10-14T04:39:57.349Z,100816.44
2022-10-14T04:42:25.435Z,100806.69
2022-10-14T04:44:52.948Z,100801.75
2022-10-14T04:47:20.639Z,100801.91
2022-10-14T04:49:47.787Z,100800.06
2022-10-14T04:52:15.208Z,100788.53
2022-10-14T04:54:42.466Z,100797.19
2022-10-14T04:57:10.105Z,100794.97
2022-10-14T04:59:38.696Z,100805.25
2022-10-14T05:02:05.924Z,100796.31
2022-10-14T05:04:33.417Z,100799.63
2022-10-14T05:07:00.569Z,100796.84
2022-10-14T05:09:27.770Z,100800.94
2022-10-14T05:11:54.920Z,100801.63
2022-10-14T05:14:22.904Z,100797.97
2022-10-14T05:16:50.019Z,100803.78
2022-10-14T05:19:17.168Z,100800.31
2022-10-14T05:21:44.370Z,100800.47
2022-10-14T05:24:11.566Z,100794.22
2022-10-14T05:26:38.755Z,100800.13
2022-10-14T05:29:06.016Z,100802.00
2022-10-14T05:31:33.221Z,100802.00
2022-10-14T05:34:00.350Z,100799.38
2022-10-14T05:36:27.514Z,100795.81
2022-10-14T05:38:58.630Z,100790.41
2022-10-14T05:41:26.515Z,100790.22
2022-10-14T05:43:53.797Z,100793.47
2022-10-14T05:46:21.295Z,100788.88
2022-10-14T05:48:48.431Z,100793.88
2022-10-14T05:51:20.993Z,100795.53
2022-10-14T05:53:48.737Z,100795.19
2022-10-14T05:56:15.893Z,100790.72
2022-10-14T05:58:43.013Z,100793.25
2022-10-14T06:01:11.085Z,100786.88
2022-10-14T06:03:38.214Z,100791.91
2022-10-14T06:06:05.490Z,100793.59
2022-10-14T06:08:32.638Z,100788.25
2022-10-14T06:11:03.055Z,100791.75
2022-10-14T06:13:30.703Z,100791.66
2022-10-14T06:16:06.190Z,100786.28
2022-10-14T06:18:34.171Z,100793.94
2022-10-14T06:21:01.733Z,100797.28
2022-10-14T06:23:29.562Z,100793.66
2022-10-14T06:25:56.896Z,100793.66
2022-10-14T06:28:24.009Z,100799.59
2022-10-14T06:30:54.676Z,100788.97
2022-10-14T06:33:22.677Z,100785.31
2022-10-14T06:35:50.288Z,100800.19
2022-10-14T06:38:18.471Z,100795.94
2022-10-14T06:40:45.730Z,100803.97
2022-10-14T06:43:12.892Z,100794.09
2022-10-14T06:45:39.981Z,100797.38
2022-10-14T06:48:07.282Z,100793.03
2022-10-14T06:50:34.396Z,100795.34
2022-10-14T06:53:02.871Z,100801.22
2022-10-14T06:55:30.711Z,100796.69
2022-10-14T06:57:58.286Z,100795.94
2022-10-14T07:00:25.382Z,100795.84
2022-10-14T07:02:53.177Z,100806.88
2022-10-14T07:05:20.814Z,100807.56
2022-10-14T07:07:47.983Z,100807.38
2022-10-14T07:10:15.226Z,100808.25
2022-10-14T07:12:43.364Z,100811.56
2022-10-14T07:15:10.885Z,100819.28
2022-10-14T07:17:38.388Z,100812.97
2022-10-14T07:20:06.278Z,100816.13
2022-10-14T07:22:38.669Z,100817.81
2022-10-14T07:25:07.154Z,100818.84
2022-10-14T07:27:34.346Z,100817.88
2022-10-14T07:30:04.258Z,100819.50
2022-10-14T07:32:57.178Z,100820.25
2022-10-14T07:35:28.404Z,100813.03
2022-10-14T07:37:57.593Z,100813.56
2022-10-14T07:40:24.851Z,100818.63
2022-10-14T07:42:52.007Z,100826.47
2022-10-14T07:45:21.053Z,100818.47
2022-10-14T07:47:50.313Z,100827.13
2022-10-14T07:50:17.860Z,100822.03
2022-10-14T07:52:45.125Z,100825.41
2022-10-14T07:55:12.498Z,100817.34
2022-10-14T07:57:39.746Z,100824.31
2022-10-14T08:00:10.047Z,100818.59
2022-10-14T08:02:37.344Z,100815.69
2022-10-14T08:05:25.742Z,100811.94
2022-10-14T08:07:52.187Z,100819.41
2022-10-14T08:10:19.446Z,100819.88
2022-10-14T08:12:47.924Z,100819.78
2022-10-14T08:15:15.416Z,100823.78
2022-10-14T08:17:43.048Z,100829.63
2022-10-14T08:20:11.109Z,100817.22
2022-10-14T08:22:39.492Z,100817.84
2022-10-14T08:25:06.903Z,100817.56
2022-10-14T08:27:35.024Z,100820.88
2022-10-14T08:30:10.272Z,100819.94
2022-10-14T08:32:38.704Z,100809.88
2022-10-14T08:35:06.415Z,100803.25
2022-10-14T08:37:33.603Z,100802.84
2022-10-14T08:40:00.800Z,100798.59
2022-10-14T08:42:49.686Z,100801.69
2022-10-14T08:45:33.071Z,100808.09
2022-10-14T08:48:04.994Z,100798.47
2022-10-14T08:50:48.250Z,100799.47
2022-10-14T08:53:22.856Z,100793.31
2022-10-14T08:55:57.518Z,100785.44
2022-10-14T08:58:46.561Z,100785.59
2022-10-14T09:01:25.653Z,100789.03
2022-10-14T09:04:03.351Z,100787.28
2022-10-14T09:06:32.702Z,100780.41
2022-10-14T09:09:18.237Z,100785.84
2022-10-14T09:11:48.834Z,100783.44
2022-10-14T09:14:18.734Z,100788.19
2022-10-14T09:16:51.712Z,100791.88
2022-10-14T09:19:32.331Z,100786.84
2022-10-14T09:22:01.326Z,100780.91
2022-10-14T09:24:36.829Z,100792.75
2022-10-14T09:27:08.999Z,100779.94
2022-10-14T09:29:48.532Z,100781.69
2022-10-14T09:36:31.838Z,100778.88
2022-10-14T09:39:03.637Z,100780.78
2022-10-14T09:41:33.949Z,100784.34
2022-10-14T09:44:25.738Z,100778.38
2022-10-14T09:46:58.897Z,100767.47
2022-10-14T09:49:47.081Z,100769.44
2022-10-14T09:52:25.059Z,100773.53
2022-10-14T09:54:57.306Z,100774.06
2022-10-14T09:57:25.476Z,100762.25
2022-10-14T10:00:00.802Z,100763.03
2022-10-14T10:02:43.472Z,100766.56
2022-10-14T10:05:37.005Z,100761.66
2022-10-14T10:08:12.569Z,100765.53
2022-10-14T10:10:40.124Z,100749.88
2022-10-14T10:13:32.690Z,100741.34
2022-10-14T10:16:01.962Z,100739.88
2022-10-14T10:18:29.260Z,100739.41
2022-10-14T10:21:15.712Z,100744.84
2022-10-14T10:23:56.730Z,100750.81
2022-10-14T10:26:31.876Z,100739.81
2022-10-14T10:29:02.617Z,100737.84
2022-10-14T10:31:48.505Z,100733.63
2022-10-14T10:34:24.858Z,100733.16
2022-10-14T10:37:01.827Z,100735.31
2022-10-14T10:39:44.217Z,100742.31
2022-10-14T10:42:29.738Z,100732.44
2022-10-14T10:45:18.684Z,100738.06
2022-10-14T10:48:01.618Z,100738.06
2022-10-14T10:50:36.310Z,100741.56
2022-10-14T10:53:09.499Z,100741.56
2022-10-14T10:55:58.490Z,100739.97
2022-10-14T10:58:41.405Z,100737.31
2022-10-14T11:01:36.924Z,100735.50
2022-10-14T11:04:22.404Z,100728.66
2022-10-14T11:07:56.619Z,100729.97
2022-10-14T11:11:08.825Z,100725.88
2022-10-14T11:13:46.306Z,100723.69
2022-10-14T11:16:26.800Z,100722.72
2022-10-14T11:19:14.750Z,100715.25
2022-10-14T11:21:45.319Z,100711.75
2022-10-14T11:24:40.380Z,100710.53
2022-10-14T11:27:24.001Z,100714.38
2022-10-14T11:30:10.066Z,100720.25
2022-10-14T11:32:57.120Z,100710.47
2022-10-14T11:38:20.090Z,100705.91
2022-10-14T11:41:32.421Z,100707.25
2022-10-14T11:44:32.859Z,100697.09
2022-10-14T11:47:05.877Z,100681.38
2022-10-14T11:49:40.247Z,100686.94
2022-10-14T11:52:12.070Z,100689.97
2022-10-14T11:54:52.659Z,100686.09
2022-10-14T11:57:50.806Z,100684.66
2022-10-14T12:00:22.249Z,100682.34
2022-10-14T12:02:56.735Z,100671.03
2022-10-14T12:05:44.823Z,100665.88
2022-10-14T12:08:43.973Z,100669.72
2022-10-14T12:11:26.044Z,100679.88
2022-10-14T12:13:57.609Z,100676.66
2022-10-14T12:16:24.784Z,100664.50
2022-10-14T12:18:56.216Z,100662.13
2022-10-14T12:21:40.918Z,100669.44
2022-10-14T12:24:14.578Z,100658.78
2022-10-14T12:26:57.755Z,100657.88
2022-10-14T12:29:27.838Z,100660.53
2022-10-14T12:32:21.648Z,100664.75
2022-10-14T12:34:56.466Z,100660.88
2022-10-14T12:37:31.900Z,100657.78
2022-10-14T12:40:02.492Z,100658.50
2022-10-14T12:42:31.029Z,100650.38
2022-10-14T12:45:01.554Z,100652.72
2022-10-14T12:47:35.207Z,100644.03
2022-10-14T12:50:22.460Z,100646.78
2022-10-14T12:52:57.639Z,100637.09
2022-10-14T12:55:26.539Z,100640.00
2022-10-14T12:58:06.224Z,100634.09
2022-10-14T13:00:39.711Z,100638.69
2022-10-14T13:03:21.943Z,100625.50
2022-10-14T13:05:53.272Z,100624.97
2022-10-14T13:08:23.868Z,100626.72
2022-10-14T13:11:02.522Z,100618.91
2022-10-14T13:13:59.989Z,100609.88
2022-10-14T13:16:27.232Z,100626.31
2022-10-14T13:18:58.028Z,100617.22
2022-10-14T13:21:38.649Z,100617.44
2022-10-14T13:24:21.619Z,100615.22
2022-10-14T13:26:54.960Z,100609.88
2022-10-14T13:29:37.709Z,100610.47
2022-10-14T13:32:27.207Z,100606.97
2022-10-14T13:35:24.851Z,100601.63
2022-10-14T13:38:00.754Z,100605.69
2022-10-14T13:40:53.931Z,100604.16
2022-10-14T13:43:37.817Z,100601.03
2022-10-14T13:46:18.271Z,100598.22
2022-10-14T13:48:48.151Z,100596.53
2022-10-14T13:51:31.864Z,100602.88
2022-10-14T13:54:32.436Z,100603.44
2022-10-14T13:57:38.706Z,100605.44
2022-10-14T14:02:54.552Z,100598.66
2022-10-14T14:05:24.287Z,100598.09
2022-10-14T14:11:03.597Z,100599.03
2022-10-14T14:13:31.113Z,100602.75
2022-10-14T14:15:58.831Z,100599.34
2022-10-14T14:18:33.850Z,100597.50
2022-10-14T14:21:13.479Z,100601.56
2022-10-14T14:23:58.482Z,100600.72
2022-10-14T14:26:36.280Z,100598.19
2022-10-14T14:29:05.680Z,100595.94
2022-10-14T14:31:54.653Z,100594.53
2022-10-14T14:34:22.840Z,100591.59
2022-10-14T14:36:57.863Z,100585.00
2022-10-14T14:39:36.526Z,100593.91
2022-10-14T14:42:04.371Z,100588.56
2022-10-14T14:44:33.769Z,100590.09
2022-10-14T14:47:03.183Z,100585.91
2022-10-14T14:49:33.080Z,100583.78
2022-10-14T14:52:07.794Z,100570.19
2022-10-14T14:54:44.822Z,100582.84
2022-10-14T14:57:23.115Z,100576.56
2022-10-14T15:00:04.801Z,100571.03
2022-10-14T15:02:34.263Z,100571.34
2022-10-14T15:05:08.010Z,100566.53
2022-10-14T15:07:36.567Z,100569.38
2022-10-14T15:10:07.149Z,100567.84
2022-10-14T15:12:42.563Z,100559.53
2022-10-14T15:15:26.846Z,100558.13
2022-10-14T15:18:16.655Z,100559.44
2022-10-14T15:20:44.363Z,100558.28
2022-10-14T15:23:38.111Z,100554.22
2022-10-14T15:26:36.438Z,100553.59
2022-10-14T15:29:03.925Z,100549.78
2022-10-14T15:31:32.763Z,100541.13
2022-10-14T15:34:00.803Z,100542.34
2022-10-14T15:36:33.209Z,100537.59
2022-10-14T15:39:01.670Z,100542.91
2022-10-14T15:41:29.631Z,100536.72
2022-10-14T15:43:57.213Z,100533.50
2022-10-14T15:46:48.215Z,100531.38
2022-10-14T15:49:20.372Z,100527.44
2022-10-14T15:51:49.542Z,100530.66
2022-10-14T15:54:17.032Z,100523.06
2022-10-14T15:56:44.681Z,100526.84
2022-10-14T15:59:16.177Z,100522.75
2022-10-14T16:01:45.310Z,100526.66
2022-10-14T16:04:22.423Z,100520.91
2022-10-14T16:06:51.259Z,100517.09
2022-10-14T16:09:18.833Z,100521.97
2022-10-14T16:11:46.189Z,100522.34
2022-10-14T16:14:13.792Z,100522.88
2022-10-14T16:16:45.710Z,100525.78
2022-10-14T16:19:13.193Z,100520.00
2022-10-14T16:21:40.793Z,100521.53
2022-10-14T16:26:39.237Z,100522.22
2022-10-14T16:29:06.497Z,100525.03
2022-10-14T16:31:33.957Z,100521.66
2022-10-14T16:34:02.159Z,100516.59
2022-10-14T16:36:29.543Z,100519.50
2022-10-14T16:38:57.239Z,100521.72
2022-10-14T16:41:25.206Z,100520.28
2022-10-14T16:43:52.571Z,100517.19
2022-10-14T16:46:20.169Z,100523.72
2022-10-14T16:48:47.652Z,100524.00
2022-10-14T16:51:15.582Z,100520.00
2022-10-14T16:53:46.812Z,100514.13
2022-10-14T16:56:37.104Z,100515.38
2022-10-14T16:59:04.940Z,100507.88
2022-10-14T17:01:32.526Z,100503.78
2022-10-14T17:04:00.033Z,100506.59
2022-10-14T17:06:27.861Z,100509.38
2022-10-14T17:08:55.237Z,100508.66
2022-10-14T17:11:22.723Z,100503.63
2022-10-14T17:13:56.797Z,100507.47
2022-10-14T17:16:24.266Z,100510.38
2022-10-14T17:18:52.861Z,100508.78
2022-10-14T17:21:20.336Z,100511.56
2022-10-14T17:23:48.148Z,100509.03
2022-10-14T17:26:20.430Z,100511.94
2022-10-14T17:28:48.515Z,100504.94
2022-10-14T17:31:20.912Z,100503.38
2022-10-14T17:33:49.176Z,100502.41
2022-10-14T17:36:23.196Z,100500.03
2022-10-14T17:38:51.279Z,100505.56
2022-10-14T17:41:19.861Z,100502.31
2022-10-14T17:43:49.619Z,100496.41
2022-10-14T17:46:20.882Z,100502.00
2022-10-14T17:48:50.689Z,100501.38
2022-10-14T17:51:18.406Z,100495.38
2022-10-14T17:53:46.024Z,100498.50
2022-10-14T17:56:13.381Z,100498.78
2022-10-14T17:58:41.122Z,100498.16
2022-10-14T18:01:11.122Z,100496.72
2022-10-14T18:03:42.070Z,100492.63
2022-10-14T18:06:20.942Z,100498.06
2022-10-14T18:08:56.585Z,100492.25
2022-10-14T18:11:24.545Z,100488.91
2022-10-14T18:13:58.155Z,100485.66
2022-10-14T18:16:26.951Z,100485.16
2022-10-14T18:18:55.025Z,100478.56
2022-10-14T18:21:22.395Z,100475.06
2022-10-14T18:23:49.869Z,100469.28
2022-10-14T18:26:19.535Z,100460.84
2022-10-14T18:28:51.336Z,100451.22
2022-10-14T18:31:24.675Z,100460.25
2022-10-14T18:33:54.796Z,100458.81
2022-10-14T18:36:25.279Z,100465.19
2022-10-14T18:38:54.704Z,100461.81
2022-10-14T18:41:22.886Z,100468.31
2022-10-14T18:43:50.963Z,100465.91
2022-10-14T18:46:23.486Z,100460.13
2022-10-14T18:48:52.775Z,100459.75
2022-10-14T18:51:25.766Z,100459.13
2022-10-14T18:53:56.012Z,100452.16
2022-10-14T18:56:25.777Z,100449.72
2022-10-14T18:58:55.829Z,100441.31
2022-10-14T19:01:23.820Z,100432.88
2022-10-14T19:03:51.458Z,100440.81
2022-10-14T19:06:19.426Z,100440.91
2022-10-14T19:08:47.403Z,100448.03
2022-10-14T19:11:19.779Z,100436.59
2022-10-14T19:13:49.068Z,100439.38
2022-10-14T19:16:18.826Z,100439.47
2022-10-14T19:18:46.800Z,100440.44
2022-10-14T19:21:15.713Z,100432.72
2022-10-14T19:23:43.912Z,100438.97
2022-10-14T19:26:19.818Z,100438.28
2022-10-14T19:28:49.916Z,100436.47
2022-10-14T19:31:22.195Z,100439.13
2022-10-14T19:33:49.920Z,100431.28
2022-10-14T19:36:18.363Z,100423.44
2022-10-14T19:38:52.329Z,100416.47
2022-10-14T19:41:19.921Z,100416.47
2022-10-14T19:43:47.404Z,100411.19
2022-10-14T19:46:14.883Z,100406.97
2022-10-14T19:48:42.489Z,100402.63
2022-10-14T19:51:10.331Z,100407.91
2022-10-14T19:53:38.656Z,100394.69
2022-10-14T19:56:11.669Z,100393.72
2022-10-14T19:58:43.891Z,100393.97
2022-10-14T20:01:15.221Z,100381.69
2022-10-14T20:03:42.981Z,100381.69
2022-10-14T20:06:11.900Z,100384.59
2022-10-14T20:08:40.226Z,100387.34
2022-10-14T20:11:10.467Z,100386.50
2022-10-14T20:13:38.425Z,100383.97
2022-10-14T20:16:08.430Z,100380.50
2022-10-14T20:18:36.149Z,100383.13
2022-10-14T20:21:05.481Z,100379.03
2022-10-14T20:23:38.489Z,100373.97
2022-10-14T20:26:17.521Z,100367.13
2022-10-14T20:28:45.496Z,100367.22
2022-10-14T20:31:14.795Z,100354.97
2022-10-14T20:33:42.282Z,100363.03
2022-10-14T20:36:15.045Z,100359.63
2022-10-14T20:38:43.252Z,100360.47
2022-10-14T20:41:16.374Z,100350.16
2022-10-14T20:43:44.798Z,100359.06
2022-10-14T20:46:13.032Z,100363.47
2022-10-14T20:48:40.728Z,100361.78
2022-10-14T20:51:10.624Z,100360.25
2022-10-14T20:53:38.311Z,100364.56
2022-10-14T20:56:08.581Z,100362.16
2022-10-14T20:58:36.169Z,100357.59
2022-10-14T21:01:17.424Z,100348.81
2022-10-14T21:03:46.493Z,100341.13
2022-10-14T21:06:20.351Z,100342.06
2022-10-14T21:08:49.745Z,100337.63
2022-10-14T21:11:23.117Z,100343.00
2022-10-14T21:13:52.985Z,100322.72
2022-10-14T21:16:23.941Z,100317.44
2022-10-14T21:18:56.798Z,100324.50
2022-10-14T21:21:31.513Z,100313.22
2022-10-14T21:23:59.587Z,100299.00
2022-10-14T21:26:27.552Z,100305.28
2022-10-14T21:28:55.339Z,100288.56
2022-10-14T21:31:23.119Z,100286.75
2022-10-14T21:34:04.216Z,100286.63
2022-10-14T21:36:34.280Z,100291.81
2022-10-14T21:39:06.207Z,100286.53
2022-10-14T21:41:34.999Z,100283.88
2022-10-14T21:44:02.504Z,100282.91
2022-10-14T21:46:30.208Z,100291.81
2022-10-14T21:48:58.290Z,100285.91
2022-10-14T21:51:28.288Z,100287.59
2022-10-14T21:53:56.256Z,100283.28
2022-10-14T21:56:24.210Z,100277.13
2022-10-14T21:58:52.296Z,100277.13
2022-10-14T22:01:22.220Z,100281.69
2022-10-14T22:03:58.176Z,100275.56
2022-10-14T22:06:26.503Z,100261.84
2022-10-14T22:08:55.657Z,100261.84
2022-10-14T22:11:28.668Z,100263.66
2022-10-14T22:13:58.306Z,100256.56
2022-10-14T22:16:26.619Z,100255.72
2022-10-14T22:18:54.104Z,100240.81
2022-10-14T22:21:23.629Z,100238.28
2022-10-14T22:23:51.466Z,100239.13
2022-10-14T22:26:20.994Z,100226.03
2022-10-14T22:28:49.053Z,100224.34
2022-10-14T22:31:19.693Z,100218.44
2022-10-14T22:33:47.284Z,100220.59
2022-10-14T22:36:19.506Z,100215.09
2022-10-14T22:38:50.153Z,100215.94
2022-10-14T22:41:18.006Z,100215.94
2022-10-14T22:43:47.195Z,100215.94
2022-10-14T22:46:15.735Z,100214.00
2022-10-14T22:48:43.202Z,100208.84
2022-10-14T22:51:13.379Z,100208.09
2022-10-14T22:53:41.896Z,100208.34
2022-10-14T22:56:12.017Z,100200.44
2022-10-14T22:58:39.747Z,100203.91
2022-10-14T23:01:12.617Z,100196.09
2022-10-14T23:03:40.210Z,100195.97
2022-10-14T23:06:10.095Z,100197.78
2022-10-14T23:08:39.259Z,100204.03
2022-10-14T23:11:07.256Z,100194.28
2022-10-14T23:13:35.068Z,100194.16
2022-10-14T23:16:07.101Z,100189.84
2022-10-14T23:18:37.178Z,100194.28
2022-10-14T23:21:13.831Z,100191.88
2022-10-14T23:23:41.797Z,100181.53
2022-10-14T23:26:11.204Z,100180.59
2022-10-14T23:28:39.265Z,100188.63
2022-10-14T23:31:11.429Z,100189.59
2022-10-14T23:33:39.186Z,100194.88
2022-10-14T23:36:09.273Z,100187.19
2022-10-14T23:38:37.121Z,100195.00
2022-10-14T23:41:05.193Z,100183.47
2022-10-14T23:43:33.158Z,100181.78
2022-10-14T23:46:01.026Z,100183.09
2022-10-14T23:48:29.248Z,100178.88
2022-10-14T23:50:57.285Z,100181.53
2022-10-14T23:53:28.613Z,100171.66
2022-10-14T23:55:56.929Z,100171.56
2022-10-14T23:58:25.280Z,100174.09
